Taylor Springs, IL

1:27 AM CST on March 02, 2015 (GMT -0600)
Saint Louis Regional | Change Station
CLOSE
Current Station
Airport
Location: Alton,
Elevation: 545 ft
Nearby Weather Stations

Elev 545 ft 38.89 °N, 90.03 °W | Updated 12 minutes ago

Partly Cloudy
Partly Cloudy
15 °F
Feels Like 7 °F
N
5
Wind Variable Wind from West

Today
High -- | Low -- °F
--% Chance of Precip.
Yesterday
High -- | Low -- °F
Precip. -- in
6:29 AM 5:51 PM
Waxing Gibbous, 90% visible
Pressure 30.52 in
Visibility 0.2 miles
Clouds Mostly Cloudy 300 ft
Windchill 7 °F
Dew Point 13 °F
Humidity 93%
Rainfall 0.00 in
Snow Depth Not available.
UV 0 out of 12
Pollen .50 out of 12
Air Quality Not available.
Flu Activity Not available.
METAR KALN 020715Z AUTO 28004KT 1/4SM FZFG BKN003 M10/M10 A3052 RMK AO2 T10961105

More Conditions Fewer Conditions

Pressure 30.52 in
Visibility 0.2 miles
Clouds Mostly Cloudy 300 ft
Windchill 7 °F
Dew Point 13 °F
Humidity 93%
Rainfall 0.00 in
Snow Depth Not available.
UV 0 out of 12
Pollen .50 out of 12
Air Quality Not available.
Flu Activity Not available.
METAR KALN 020715Z AUTO 28004KT 1/4SM FZFG BKN003 M10/M10 A3052 RMK AO2 T10961105

More Conditions Fewer Conditions

10-Day Weather Forecast

Almanac

Astronomy

Mar. 02, 2015 Rise Set
Actual Time
Civil Twilight
Nautical Twilight
Astronomical Twilight
Moon
Length of Visible Light
Length of Day
Tomorrow will be .
, % of the Moon is Illuminated

Today's Extremes

State Highs State Lows

Community

WunderPhotos

Upload Photos

1,801,739 photos uploaded!

WunderBlogs® & News

Nearby

Air Quality

  Air Quality AQ Index Pollutant
Not available.

Snow Depth

Station Depth Elevation

Earthquake Activity

City Distance Mag. Time & Date
Minimum magnitude displayed is 2.5.

Coastal Water Temperatures

Place Temperature

Nearby Weather Stations